Time;durP1;ratioP1;P1;durP2;ratioP2;P2;SDS_P1;SDS_P2;PMS_P1;PMS_P2;Temp;Humidity;BMP_temperature;BMP_pressure;BME280_temperature;BME280_humidity;BME280_pressure;Samples;Min_cycle;Max_cycle;Signal;HPM_P1;HPM_P2
2024/02/20 00:01:22;;;;;;;;;;;;;;;;;;2216081;58;2866;-22
2024/02/20 00:03:54;;;;;;;;;;;;;;;;;;2211217;66;1979;-22
2024/02/20 00:06:31;;;;;;;;;;;;;;;;;;2215486;66;2245;-22
2024/02/20 00:09:04;;;;;;;;;;;;;;;;;;2215019;66;2413;-23
2024/02/20 00:11:35;;;;;;;;;;;;;;;;;;2215837;66;1942;-23
2024/02/20 00:14:05;;;;;;;;;;;;;;;;;;2215355;58;2656;-22
2024/02/20 00:16:41;;;;;;;;;;;;;;;;;;2215229;66;1991;-22
2024/02/20 00:19:20;;;;;;;;;;;;;;;;;;2216155;66;2295;-22
2024/02/20 00:21:51;;;;;;;;;;;;;;;;;;2212181;66;2528;-23
2024/02/20 00:24:29;;;;;;;;;;;;;;;;;;2216839;66;1829;-22
2024/02/20 00:27:00;;;;;;;;;;;;;;;;;;2211804;66;2545;-22
2024/02/20 00:29:33;;;;;;;;;;;;;;;;;;2215901;66;1809;-23
2024/02/20 00:32:04;;;;;;;;;;;;;;;;;;2215237;58;2383;-19
2024/02/20 00:34:35;;;;;;;;;;;;;;;;;;2216699;58;1822;-19
2024/02/20 00:37:05;;;;;;;;;;;;;;;;;;2214712;58;2356;-19
2024/02/20 00:39:36;;;;;;;;;;;;;;;;;;2216993;58;2972;-19
2024/02/20 00:42:08;;;;;;;;;;;;;;;;;;2215018;58;2184;-19
2024/02/20 00:44:41;;;;;;;;;;;;;;;;;;2212679;66;1832;-19
2024/02/20 00:47:12;;;;;;;;;;;;;;;;;;2211709;66;2827;-19
2024/02/20 00:49:42;;;;;;;;;;;;;;;;;;2213333;59;1801;-19
2024/02/20 00:52:16;;;;;;;;;;;;;;;;;;2213147;59;2311;-19
2024/02/20 00:54:48;;;;;;;;;;;;;;;;;;2212384;59;2060;-19
2024/02/20 00:57:20;;;;;;;;;;;;;;;;;;2215793;66;2086;-19
2024/02/20 00:59:50;;;;;;;;;;;;;;;;;;2216462;66;2824;-20
2024/02/20 01:02:21;;;;;;;;;;;;;;;;;;2212283;66;2027;-20
2024/02/20 01:04:51;;;;;;;;;;;;;;;;;;2211277;58;2874;-19
2024/02/20 01:07:22;;;;;;;;;;;;;;;;;;2211491;59;2719;-19
2024/02/20 01:09:52;;;;;;;;;;;;;;;;;;2212569;66;1808;-19
2024/02/20 01:12:23;;;;;;;;;;;;;;;;;;2217397;66;2730;-19
2024/02/20 01:14:53;;;;;;;;;;;;;;;;;;2216188;58;1867;-19
2024/02/20 01:17:24;;;;;;;;;;;;;;;;;;2216985;60;1909;-19
2024/02/20 01:19:54;;;;;;;;;;;;;;;;;;2214684;66;2646;-19
2024/02/20 01:22:25;;;;;;;;;;;;;;;;;;2210983;59;2606;-20
2024/02/20 01:24:55;;;;;;;;;;;;;;;;;;2214864;66;2630;-20
2024/02/20 01:27:26;;;;;;;;;;;;;;;;;;2216218;66;3177;-19
2024/02/20 01:29:56;;;;;;;;;;;;;;;;;;2216047;66;1980;-19
2024/02/20 01:32:33;;;;;;;;;;;;;;;;;;2216308;58;2673;-20
2024/02/20 01:35:04;;;;;;;;;;;;;;;;;;2214797;59;1902;-20
2024/02/20 01:37:41;;;;;;;;;;;;;;;;;;2216529;58;1876;-20
2024/02/20 01:40:13;;;;;;;;;;;;;;;;;;2211704;59;3120;-20
2024/02/20 01:42:54;;;;;;;;;;;;;;;;;;2214490;66;3083;-20
2024/02/20 01:45:26;;;;;;;;;;;;;;;;;;2212075;66;2909;-20
2024/02/20 01:48:07;;;;;;;;;;;;;;;;;;2215416;66;1990;-20
2024/02/20 01:50:37;;;;;;;;;;;;;;;;;;2213575;59;2759;-20
2024/02/20 01:53:23;;;;;;;;;;;;;;;;;;;;;
2024/02/20 01:56:06;;;;;;;;;;;;;;;;;;2214769;58;2185;-19
2024/02/20 01:58:38;;;;;;;;;;;;;;;;;;2216928;66;1857;-19
2024/02/20 02:01:10;;;;;;;;;;;;;;;;;;2213207;59;1968;-20
2024/02/20 02:03:41;;;;;;;;;;;;;;;;;;2210375;66;1736;-20
2024/02/20 02:06:12;;;;;;;;;;;;;;;;;;2214831;58;2656;-20
2024/02/20 02:08:42;;;;;;;;;;;;;;;;;;2210402;66;1966;-19
2024/02/20 02:11:13;;;;;;;;;;;;;;;;;;2212652;66;2589;-20
2024/02/20 02:13:44;;;;;;;;;;;;;;;;;;2213186;59;2698;-20
2024/02/20 02:16:14;;;;;;;;;;;;;;;;;;2214886;66;3364;-19
2024/02/20 02:18:45;;;;;;;;;;;;;;;;;;2217253;66;2000;-20
2024/02/20 02:21:15;;;;;;;;;;;;;;;;;;2215478;66;1920;-20
2024/02/20 02:23:46;;;;;;;;;;;;;;;;;;2213906;59;3216;-20
2024/02/20 02:26:22;;;;;;;;;;;;;;;;;;2216366;59;2071;-20
2024/02/20 02:28:53;;;;;;;;;;;;;;;;;;2212262;66;1932;-20
2024/02/20 02:31:23;;;;;;;;;;;;;;;;;;2216446;66;2207;-20
2024/02/20 02:33:54;;;;;;;;;;;;;;;;;;2215062;58;1953;-20
2024/02/20 02:36:24;;;;;;;;;;;;;;;;;;2214092;59;2735;-20
2024/02/20 02:39:00;;;;;;;;;;;;;;;;;;2215359;58;2469;-19
2024/02/20 02:41:30;;;;;;;;;;;;;;;;;;2216395;66;1887;-19
2024/02/20 02:44:01;;;;;;;;;;;;;;;;;;2215795;59;3120;-19
2024/02/20 02:46:55;;;;;;;;;;;;;;;;;;2210598;59;2364;-19
2024/02/20 02:49:26;;;;;;;;;;;;;;;;;;2215910;58;2351;-19
2024/02/20 02:51:56;;;;;;;;;;;;;;;;;;2211943;59;2789;-19
2024/02/20 02:54:29;;;;;;;;;;;;;;;;;;2215408;66;3445;-19
2024/02/20 02:57:02;;;;;;;;;;;;;;;;;;2211732;59;2758;-19
2024/02/20 02:59:32;;;;;;;;;;;;;;;;;;2216261;59;2578;-19
2024/02/20 03:02:03;;;;;;;;;;;;;;;;;;2214376;59;2899;-19
2024/02/20 03:04:33;;;;;;;;;;;;;;;;;;2214924;66;1943;-19
2024/02/20 03:07:04;;;;;;;;;;;;;;;;;;2210449;66;2524;-19
2024/02/20 03:09:36;;;;;;;;;;;;;;;;;;2214753;66;2658;-19
2024/02/20 03:12:06;;;;;;;;;;;;;;;;;;2213837;66;2851;-19
2024/02/20 03:14:40;;;;;;;;;;;;;;;;;;2214784;58;2269;-19
2024/02/20 03:17:10;;;;;;;;;;;;;;;;;;2215773;66;2080;-19
2024/02/20 03:19:40;;;;;;;;;;;;;;;;;;2214167;66;1749;-20
2024/02/20 03:22:15;;;;;;;;;;;;;;;;;;2215546;58;2568;-19
2024/02/20 03:24:45;;;;;;;;;;;;;;;;;;2211014;66;1868;-20
2024/02/20 03:27:17;;;;;;;;;;;;;;;;;;2209347;66;3834;-20
2024/02/20 03:29:48;;;;;;;;;;;;;;;;;;2215857;66;1935;-19
2024/02/20 03:32:18;;;;;;;;;;;;;;;;;;2214836;58;2073;-19
2024/02/20 03:34:50;;;;;;;;;;;;;;;;;;2215733;66;2935;-19
2024/02/20 03:37:22;;;;;;;;;;;;;;;;;;2212235;59;1872;-19
2024/02/20 03:39:56;;;;;;;;;;;;;;;;;;2213643;59;2327;-19
2024/02/20 03:42:27;;;;;;;;;;;;;;;;;;2215545;59;2391;-19
2024/02/20 03:44:58;;;;;;;;;;;;;;;;;;2210623;66;2273;-19
2024/02/20 03:47:29;;;;;;;;;;;;;;;;;;2216481;58;1912;-19
2024/02/20 03:49:59;;;;;;;;;;;;;;;;;;2214617;66;1860;-19
2024/02/20 03:52:30;;;;;;;;;;;;;;;;;;2215701;59;2013;-19
2024/02/20 03:55:00;;;;;;;;;;;;;;;;;;2210808;59;2359;-19
2024/02/20 03:57:30;;;;;;;;;;;;;;;;;;2216405;59;1820;-19
2024/02/20 04:00:01;;;;;;;;;;;;;;;;;;2212463;59;1899;-19
2024/02/20 04:02:31;;;;;;;;;;;;;;;;;;2214566;59;2346;-19
2024/02/20 04:05:06;;;;;;;;;;;;;;;;;;2212163;66;2666;-19
2024/02/20 04:07:41;;;;;;;;;;;;;;;;;;2216506;66;1940;-19
2024/02/20 04:10:13;;;;;;;;;;;;;;;;;;2215112;59;3167;-19
2024/02/20 04:12:43;;;;;;;;;;;;;;;;;;2215162;66;2803;-19
2024/02/20 04:15:14;;;;;;;;;;;;;;;;;;2215859;58;3024;-19
2024/02/20 04:17:44;;;;;;;;;;;;;;;;;;2216266;66;2051;-19
2024/02/20 04:20:15;;;;;;;;;;;;;;;;;;2210714;66;1941;-19
2024/02/20 04:22:51;;;;;;;;;;;;;;;;;;2214680;59;2482;-19
2024/02/20 04:25:21;;;;;;;;;;;;;;;;;;2210444;66;2914;-19
2024/02/20 04:27:52;;;;;;;;;;;;;;;;;;2213053;66;2005;-19
2024/02/20 04:30:25;;;;;;;;;;;;;;;;;;2214770;66;2756;-19
2024/02/20 04:32:56;;;;;;;;;;;;;;;;;;2216308;59;3216;-19
2024/02/20 04:35:26;;;;;;;;;;;;;;;;;;2215415;66;1987;-19
2024/02/20 04:37:57;;;;;;;;;;;;;;;;;;2216544;58;1867;-19
2024/02/20 04:40:28;;;;;;;;;;;;;;;;;;2215310;59;3003;-19
2024/02/20 04:42:59;;;;;;;;;;;;;;;;;;2216283;66;1979;-19
2024/02/20 04:45:30;;;;;;;;;;;;;;;;;;2215605;66;2354;-19
2024/02/20 04:48:02;;;;;;;;;;;;;;;;;;2213208;58;2592;-19
2024/02/20 04:50:35;;;;;;;;;;;;;;;;;;2217107;58;2177;-19
2024/02/20 04:53:08;;;;;;;;;;;;;;;;;;2214764;66;2030;-19
2024/02/20 04:55:56;;;;;;;;;;;;;;;;;;2216297;59;2452;-19
2024/02/20 04:58:26;;;;;;;;;;;;;;;;;;2215980;66;2578;-19
2024/02/20 05:00:57;;;;;;;;;;;;;;;;;;2215517;58;2046;-19
2024/02/20 05:03:28;;;;;;;;;;;;;;;;;;2213308;66;3497;-19
2024/02/20 05:05:58;;;;;;;;;;;;;;;;;;2217030;66;2311;-19
2024/02/20 05:08:29;;;;;;;;;;;;;;;;;;2215166;66;2230;-19
2024/02/20 05:10:59;;;;;;;;;;;;;;;;;;2216422;66;2220;-19
2024/02/20 05:13:29;;;;;;;;;;;;;;;;;;2213550;58;2793;-19
2024/02/20 05:16:03;;;;;;;;;;;;;;;;;;2214256;59;3331;-19
2024/02/20 05:18:33;;;;;;;;;;;;;;;;;;2216045;59;1697;-19
2024/02/20 05:21:09;;;;;;;;;;;;;;;;;;2216504;66;2581;-19
2024/02/20 05:23:42;;;;;;;;;;;;;;;;;;2213870;66;2716;-19
2024/02/20 05:26:16;;;;;;;;;;;;;;;;;;2212893;66;1972;-19
2024/02/20 05:28:46;;;;;;;;;;;;;;;;;;2216245;66;1932;-19
2024/02/20 05:31:30;;;;;;;;;;;;;;;;;;2216594;58;2771;-19
2024/02/20 05:34:01;;;;;;;;;;;;;;;;;;2216200;58;3089;-18
2024/02/20 05:36:33;;;;;;;;;;;;;;;;;;2212892;59;2162;-19
2024/02/20 05:39:05;;;;;;;;;;;;;;;;;;2212106;66;1810;-19
2024/02/20 05:41:36;;;;;;;;;;;;;;;;;;2216365;66;2391;-19
2024/02/20 05:44:06;;;;;;;;;;;;;;;;;;2215230;66;2887;-18
2024/02/20 05:46:37;;;;;;;;;;;;;;;;;;2216365;66;1960;-19
2024/02/20 05:49:08;;;;;;;;;;;;;;;;;;2212221;58;1936;-18
2024/02/20 05:51:39;;;;;;;;;;;;;;;;;;2214184;59;1800;-19
2024/02/20 05:54:09;;;;;;;;;;;;;;;;;;2212304;59;2112;-19
2024/02/20 05:56:41;;;;;;;;;;;;;;;;;;2214156;59;1915;-18
2024/02/20 05:59:11;;;;;;;;;;;;;;;;;;2215233;59;1994;-18
2024/02/20 06:01:41;;;;;;;;;;;;;;;;;;2215566;66;1758;-19
2024/02/20 06:04:13;;;;;;;;;;;;;;;;;;2214750;66;3342;-18
2024/02/20 06:06:46;;;;;;;;;;;;;;;;;;2213920;59;1914;-18
2024/02/20 06:09:17;;;;;;;;;;;;;;;;;;2215178;66;1920;-18
2024/02/20 06:11:48;;;;;;;;;;;;;;;;;;2216923;66;1901;-19
2024/02/20 06:14:19;;;;;;;;;;;;;;;;;;2216055;58;1960;-19
2024/02/20 06:16:49;;;;;;;;;;;;;;;;;;2215257;66;2552;-19
2024/02/20 06:19:20;;;;;;;;;;;;;;;;;;2212384;66;2444;-19
2024/02/20 06:21:50;;;;;;;;;;;;;;;;;;2212693;66;1901;-19
2024/02/20 06:24:21;;;;;;;;;;;;;;;;;;2214067;66;1971;-18
2024/02/20 06:26:52;;;;;;;;;;;;;;;;;;2213480;66;1943;-20
2024/02/20 06:29:22;;;;;;;;;;;;;;;;;;2213824;66;1931;-19
2024/02/20 06:31:53;;;;;;;;;;;;;;;;;;2213610;58;2062;-19
2024/02/20 06:34:23;;;;;;;;;;;;;;;;;;2215211;59;2135;-19
2024/02/20 06:36:53;;;;;;;;;;;;;;;;;;2216368;59;2858;-18
2024/02/20 06:39:24;;;;;;;;;;;;;;;;;;2215415;58;2540;-22
2024/02/20 06:41:54;;;;;;;;;;;;;;;;;;2213907;59;2584;-21
2024/02/20 06:44:26;;;;;;;;;;;;;;;;;;2215929;58;3086;-21
2024/02/20 06:46:56;;;;;;;;;;;;;;;;;;2216225;66;1538;-21
2024/02/20 06:49:30;;;;;;;;;;;;;;;;;;2212478;58;1937;-21
2024/02/20 06:52:00;;;;;;;;;;;;;;;;;;2216366;58;1895;-21
2024/02/20 06:54:30;;;;;;;;;;;;;;;;;;2214717;66;2208;-21
2024/02/20 06:57:01;;;;;;;;;;;;;;;;;;2216587;58;1470;-21
2024/02/20 06:59:31;;;;;;;;;;;;;;;;;;2215515;58;1556;-21
2024/02/20 07:02:04;;;;;;;;;;;;;;;;;;2213098;66;1777;-21
2024/02/20 07:04:55;;;;;;;;;;;;;;;;;;2216427;66;1507;-21
2024/02/20 07:07:25;;;;;;;;;;;;;;;;;;2214625;66;2083;-21
2024/02/20 07:09:55;;;;;;;;;;;;;;;;;;2215337;66;2624;-21
2024/02/20 07:12:26;;;;;;;;;;;;;;;;;;2211248;66;2122;-21
2024/02/20 07:14:56;;;;;;;;;;;;;;;;;;2213607;58;1727;-21
2024/02/20 07:17:27;;;;;;;;;;;;;;;;;;2214865;59;2225;-21
2024/02/20 07:19:57;;;;;;;;;;;;;;;;;;2215110;66;2310;-21
2024/02/20 07:22:29;;;;;;;;;;;;;;;;;;2214208;58;2393;-21
2024/02/20 07:25:01;;;;;;;;;;;;;;;;;;2214669;59;2855;-21
2024/02/20 07:27:32;;;;;;;;;;;;;;;;;;2213040;58;2548;-21
2024/02/20 07:30:03;;;;;;;;;;;;;;;;;;2211191;59;2283;-21
2024/02/20 07:32:34;;;;;;;;;;;;;;;;;;2213704;58;2624;-21
2024/02/20 07:35:04;;;;;;;;;;;;;;;;;;2214269;58;2350;-21
2024/02/20 07:37:35;;;;;;;;;;;;;;;;;;2213254;58;2439;-21
2024/02/20 07:40:06;;;;;;;;;;;;;;;;;;2214870;66;2231;-21
2024/02/20 07:42:39;;;;;;;;;;;;;;;;;;2210933;59;2550;-21
2024/02/20 07:45:16;;;;;;;;;;;;;;;;;;2215399;58;2346;-21
2024/02/20 07:47:46;;;;;;;;;;;;;;;;;;2211672;58;2515;-21
2024/02/20 07:50:19;;;;;;;;;;;;;;;;;;2211218;58;2495;-21
2024/02/20 07:52:50;;;;;;;;;;;;;;;;;;2214289;66;3069;-21
2024/02/20 07:55:20;;;;;;;;;;;;;;;;;;2212729;59;2402;-21
2024/02/20 07:57:51;;;;;;;;;;;;;;;;;;2214007;58;2485;-21
2024/02/20 08:00:22;;;;;;;;;;;;;;;;;;2212224;59;2202;-21
2024/02/20 08:02:53;;;;;;;;;;;;;;;;;;2212565;66;2215;-21
2024/02/20 08:05:24;;;;;;;;;;;;;;;;;;2214791;58;2132;-21
2024/02/20 08:07:56;;;;;;;;;;;;;;;;;;2210521;59;2327;-21
2024/02/20 08:10:36;;;;;;;;;;;;;;;;;;2214796;59;2219;-21
2024/02/20 08:13:07;;;;;;;;;;;;;;;;;;2215560;58;2465;-21
2024/02/20 08:15:38;;;;;;;;;;;;;;;;;;2213507;58;2473;-22
2024/02/20 08:18:08;;;;;;;;;;;;;;;;;;2213479;58;3802;-22
2024/02/20 08:20:38;;;;;;;;;;;;;;;;;;2215232;58;3511;-21
2024/02/20 08:23:09;;;;;;;;;;;;;;;;;;2216412;58;2241;-21
2024/02/20 08:25:39;;;;;;;;;;;;;;;;;;2215982;66;1446;-21
2024/02/20 08:28:10;;;;;;;;;;;;;;;;;;2213035;58;2047;-21
2024/02/20 08:30:45;;;;;;;;;;;;;;;;;;2211503;58;1461;-22
2024/02/20 08:33:16;;;;;;;;;;;;;;;;;;2215862;58;2301;-22
2024/02/20 08:35:46;;;;;;;;;;;;;;;;;;2216635;58;1814;-21
2024/02/20 08:38:19;;;;;;;;;;;;;;;;;;2211786;59;1677;-21
2024/02/20 08:40:50;;;;;;;;;;;;;;;;;;2216110;58;1567;-21
2024/02/20 08:43:20;;;;;;;;;;;;;;;;;;2212714;66;1606;-21
2024/02/20 08:45:52;;;;;;;;;;;;;;;;;;2212035;66;2333;-21
2024/02/20 08:48:22;;;;;;;;;;;;;;;;;;2215253;58;1933;-21
2024/02/20 08:50:56;;;;;;;;;;;;;;;;;;2211287;66;1856;-24
2024/02/20 08:53:27;;;;;;;;;;;;;;;;;;2215094;66;1642;-21
2024/02/20 08:55:57;;;;;;;;;;;;;;;;;;2210519;58;2247;-21
2024/02/20 08:58:28;;;;;;;;;;;;;;;;;;2212361;66;1537;-21
2024/02/20 09:01:01;;;;;;;;;;;;;;;;;;2212555;59;1988;-21
2024/02/20 09:03:33;;;;;;;;;;;;;;;;;;2212117;66;1610;-21
2024/02/20 09:06:05;;;;;;;;;;;;;;;;;;2213104;59;2646;-21
2024/02/20 09:08:35;;;;;;;;;;;;;;;;;;2214512;58;2398;-21
2024/02/20 09:11:05;;;;;;;;;;;;;;;;;;2212432;66;2723;-21
2024/02/20 09:13:36;;;;;;;;;;;;;;;;;;2215267;58;1475;-21
2024/02/20 09:16:06;;;;;;;;;;;;;;;;;;2213393;59;2130;-21
2024/02/20 09:18:37;;;;;;;;;;;;;;;;;;2215194;66;1656;-21
2024/02/20 09:21:07;;;;;;;;;;;;;;;;;;2212037;66;2581;-21
2024/02/20 09:23:38;;;;;;;;;;;;;;;;;;2212806;59;2131;-21
2024/02/20 09:26:14;;;;;;;;;;;;;;;;;;2216155;58;2027;-21
2024/02/20 09:28:46;;;;;;;;;;;;;;;;;;2214741;66;1936;-21
2024/02/20 09:31:16;;;;;;;;;;;;;;;;;;2217000;66;1573;-21
2024/02/20 09:33:48;;;;;;;;;;;;;;;;;;2216819;58;1608;-21
2024/02/20 09:36:18;;;;;;;;;;;;;;;;;;2210734;59;1472;-21
2024/02/20 09:38:48;;;;;;;;;;;;;;;;;;2212744;59;1685;-21
2024/02/20 09:41:27;;;;;;;;;;;;;;;;;;2210282;59;2625;-21
2024/02/20 09:43:57;;;;;;;;;;;;;;;;;;2215822;66;1608;-21
2024/02/20 09:46:31;;;;;;;;;;;;;;;;;;2211338;66;1354;-21
2024/02/20 09:49:02;;;;;;;;;;;;;;;;;;2216630;58;1945;-21
2024/02/20 09:51:36;;;;;;;;;;;;;;;;;;2209843;59;1731;-21
2024/02/20 09:54:07;;;;;;;;;;;;;;;;;;2215132;58;2091;-21
2024/02/20 09:56:40;;;;;;;;;;;;;;;;;;2215767;59;1340;-21
2024/02/20 09:59:12;;;;;;;;;;;;;;;;;;2218381;66;1479;-21
2024/02/20 10:01:44;;;;;;;;;;;;;;;;;;2212494;59;2333;-21
2024/02/20 10:04:14;;;;;;;;;;;;;;;;;;2216176;66;2161;-21
2024/02/20 10:06:48;;;;;;;;;;;;;;;;;;2215262;58;2389;-21
2024/02/20 10:09:18;;;;;;;;;;;;;;;;;;2215089;58;2686;-21
2024/02/20 10:11:49;;;;;;;;;;;;;;;;;;2212984;58;3493;-21
2024/02/20 10:14:29;;;;;;;;;;;;;;;;;;2215682;58;1329;-21
2024/02/20 10:17:03;;;;;;;;;;;;;;;;;;2215012;58;1560;-21
2024/02/20 10:19:36;;;;;;;;;;;;;;;;;;2213721;66;1694;-21
2024/02/20 10:22:06;;;;;;;;;;;;;;;;;;2216856;66;1615;-21
2024/02/20 10:24:39;;;;;;;;;;;;;;;;;;2215079;66;1637;-21
2024/02/20 10:27:10;;;;;;;;;;;;;;;;;;2216329;66;1860;-22
2024/02/20 10:29:41;;;;;;;;;;;;;;;;;;2215907;66;1939;-21
2024/02/20 10:32:12;;;;;;;;;;;;;;;;;;2216493;58;1856;-21
2024/02/20 10:34:44;;;;;;;;;;;;;;;;;;2215643;66;1593;-22
2024/02/20 10:37:16;;;;;;;;;;;;;;;;;;2216128;66;2042;-22
2024/02/20 10:39:46;;;;;;;;;;;;;;;;;;2216370;66;2007;-21
2024/02/20 10:42:17;;;;;;;;;;;;;;;;;;2217799;58;2237;-22
2024/02/20 10:44:48;;;;;;;;;;;;;;;;;;2216504;66;1768;-21
2024/02/20 10:47:20;;;;;;;;;;;;;;;;;;2213134;66;1758;-21
2024/02/20 10:49:58;;;;;;;;;;;;;;;;;;2211789;59;1997;-21
2024/02/20 10:52:29;;;;;;;;;;;;;;;;;;2215718;66;1464;-21
2024/02/20 10:55:03;;;;;;;;;;;;;;;;;;2212304;66;1934;-21
2024/02/20 10:57:37;;;;;;;;;;;;;;;;;;2210648;59;2010;-21
2024/02/20 11:00:24;;;;;;;;;;;;;;;;;;2215057;59;1473;-21
2024/02/20 11:02:56;;;;;;;;;;;;;;;;;;2216072;66;1673;-21
2024/02/20 11:05:29;;;;;;;;;;;;;;;;;;2215087;58;2553;-21
2024/02/20 11:08:05;;;;;;;;;;;;;;;;;;2212300;58;1933;-21
2024/02/20 11:10:35;;;;;;;;;;;;;;;;;;2215197;58;1790;-21
2024/02/20 11:13:13;;;;;;;;;;;;;;;;;;2212504;59;1579;-21
2024/02/20 11:15:44;;;;;;;;;;;;;;;;;;2214296;59;1960;-21
2024/02/20 11:18:24;;;;;;;;;;;;;;;;;;2215992;66;1323;-21
2024/02/20 11:21:02;;;;;;;;;;;;;;;;;;2215094;58;1752;-21
2024/02/20 11:23:32;;;;;;;;;;;;;;;;;;2214552;66;2456;-21
2024/02/20 11:26:07;;;;;;;;;;;;;;;;;;2215606;66;1537;-21
2024/02/20 11:28:38;;;;;;;;;;;;;;;;;;2213257;66;2237;-21
2024/02/20 11:31:14;;;;;;;;;;;;;;;;;;2214757;66;1417;-21
2024/02/20 11:33:45;;;;;;;;;;;;;;;;;;2214701;66;1613;-21
2024/02/20 11:36:18;;;;;;;;;;;;;;;;;;2215509;59;1535;-21
2024/02/20 11:39:03;;;;;;;;;;;;;;;;;;2214384;58;1709;-21
2024/02/20 11:41:35;;;;;;;;;;;;;;;;;;2215285;66;2485;-21
2024/02/20 11:44:05;;;;;;;;;;;;;;;;;;2215020;66;1639;-21
2024/02/20 11:46:36;;;;;;;;;;;;;;;;;;2215296;66;1796;-21
2024/02/20 11:49:06;;;;;;;;;;;;;;;;;;2214864;58;2541;-21
2024/02/20 11:51:36;;;;;;;;;;;;;;;;;;2213090;66;2433;-21
2024/02/20 11:54:07;;;;;;;;;;;;;;;;;;2211613;59;1772;-21
2024/02/20 11:56:37;;;;;;;;;;;;;;;;;;2211867;59;1581;-21
2024/02/20 11:59:08;;;;;;;;;;;;;;;;;;2215278;66;1584;-21
2024/02/20 12:01:38;;;;;;;;;;;;;;;;;;2213727;59;1538;-21
2024/02/20 12:04:11;;;;;;;;;;;;;;;;;;2215806;58;1678;-21
2024/02/20 12:06:42;;;;;;;;;;;;;;;;;;2214423;66;1507;-21
2024/02/20 12:09:17;;;;;;;;;;;;;;;;;;2216356;66;1941;-21
2024/02/20 12:11:49;;;;;;;;;;;;;;;;;;2215782;66;1476;-21
2024/02/20 12:14:22;;;;;;;;;;;;;;;;;;2216032;58;1726;-21
2024/02/20 12:16:58;;;;;;;;;;;;;;;;;;2214262;66;1677;-21
2024/02/20 12:19:30;;;;;;;;;;;;;;;;;;2215628;66;1520;-21
2024/02/20 12:22:02;;;;;;;;;;;;;;;;;;2216204;66;1558;-21
2024/02/20 12:24:32;;;;;;;;;;;;;;;;;;2211708;66;1573;-21
2024/02/20 12:27:03;;;;;;;;;;;;;;;;;;2215799;66;1289;-21
2024/02/20 12:29:34;;;;;;;;;;;;;;;;;;2215499;66;1944;-21
2024/02/20 12:32:05;;;;;;;;;;;;;;;;;;2216432;66;1628;-21
2024/02/20 12:34:35;;;;;;;;;;;;;;;;;;2215214;66;1633;-21
2024/02/20 12:37:08;;;;;;;;;;;;;;;;;;2215837;66;1708;-21
2024/02/20 12:39:39;;;;;;;;;;;;;;;;;;2215925;66;1593;-21
2024/02/20 12:42:16;;;;;;;;;;;;;;;;;;2215905;66;1289;-20
2024/02/20 12:44:47;;;;;;;;;;;;;;;;;;2214657;66;1536;-21
2024/02/20 12:47:17;;;;;;;;;;;;;;;;;;2211884;66;1641;-21
2024/02/20 12:49:48;;;;;;;;;;;;;;;;;;2215178;66;1937;-20
2024/02/20 12:52:18;;;;;;;;;;;;;;;;;;2209535;53;2483;-23
2024/02/20 12:54:48;;;;;;;;;;;;;;;;;;2192410;59;1810;-23
2024/02/20 12:57:19;;;;;;;;;;;;;;;;;;2191955;59;2038;-23
2024/02/20 12:59:50;;;;;;;;;;;;;;;;;;2194134;66;2370;-23
2024/02/20 13:02:21;;;;;;;;;;;;;;;;;;2193578;59;1962;-24
2024/02/20 13:04:51;;;;;;;;;;;;;;;;;;2189439;59;2046;-23
2024/02/20 13:07:22;;;;;;;;;;;;;;;;;;2193472;59;2015;-23
2024/02/20 13:09:52;;;;;;;;;;;;;;;;;;2193951;59;2315;-23
2024/02/20 13:12:28;;;;;;;;;;;;;;;;;;2194184;59;2029;-24
2024/02/20 13:15:00;;;;;;;;;;;;;;;;;;2196660;59;2559;-23
2024/02/20 13:17:30;;;;;;;;;;;;;;;;;;2191968;66;2208;-23
2024/02/20 13:20:01;;;;;;;;;;;;;;;;;;2191510;59;2352;-23
2024/02/20 13:22:33;;;;;;;;;;;;;;;;;;2193120;59;2176;-23
2024/02/20 13:25:03;;;;;;;;;;;;;;;;;;2194417;63;2286;-23
2024/02/20 13:27:33;;;;;;;;;;;;;;;;;;2193055;59;2137;-22
2024/02/20 13:30:04;;;;;;;;;;;;;;;;;;2191321;66;2001;-22
2024/02/20 13:32:37;;;;;;;;;;;;;;;;;;2193251;59;2320;-22
2024/02/20 13:35:07;;;;;;;;;;;;;;;;;;2194054;59;2394;-22
2024/02/20 13:37:38;;;;;;;;;;;;;;;;;;2192600;59;2040;-22
2024/02/20 13:40:08;;;;;;;;;;;;;;;;;;2189967;67;1946;-22
2024/02/20 13:42:45;;;;;;;;;;;;;;;;;;2193510;59;1830;-22
2024/02/20 13:45:16;;;;;;;;;;;;;;;;;;2194482;66;2622;-22
2024/02/20 13:47:48;;;;;;;;;;;;;;;;;;2192311;59;2021;-22
2024/02/20 13:50:18;;;;;;;;;;;;;;;;;;2189530;59;3320;-22
2024/02/20 13:52:48;;;;;;;;;;;;;;;;;;2192742;59;2068;-22
2024/02/20 13:55:20;;;;;;;;;;;;;;;;;;2191322;59;2275;-23
2024/02/20 13:57:50;;;;;;;;;;;;;;;;;;2194614;58;2263;-22
2024/02/20 14:00:24;;;;;;;;;;;;;;;;;;2194256;58;1965;-23
2024/02/20 14:02:55;;;;;;;;;;;;;;;;;;2189312;59;1993;-23
2024/02/20 14:05:25;;;;;;;;;;;;;;;;;;2193214;59;1810;-23
2024/02/20 14:07:56;;;;;;;;;;;;;;;;;;2193818;59;2085;-24
2024/02/20 14:10:27;;;;;;;;;;;;;;;;;;2189501;59;1826;-23
2024/02/20 14:13:04;;;;;;;;;;;;;;;;;;2191394;66;2215;-23
2024/02/20 14:15:35;;;;;;;;;;;;;;;;;;2189953;59;2460;-23
2024/02/20 14:18:05;;;;;;;;;;;;;;;;;;2188292;59;2215;-24
2024/02/20 14:20:42;;;;;;;;;;;;;;;;;;2192217;66;1741;-24
2024/02/20 14:23:15;;;;;;;;;;;;;;;;;;2189770;59;2553;-24
2024/02/20 14:25:46;;;;;;;;;;;;;;;;;;2191780;59;2142;-24
2024/02/20 14:28:16;;;;;;;;;;;;;;;;;;2193439;59;3357;-24
2024/02/20 14:30:47;;;;;;;;;;;;;;;;;;2189947;59;2719;-24
2024/02/20 14:33:20;;;;;;;;;;;;;;;;;;2188503;59;2669;-23
2024/02/20 14:35:50;;;;;;;;;;;;;;;;;;2189549;59;2348;-24
2024/02/20 14:38:21;;;;;;;;;;;;;;;;;;2191966;58;2436;-23
2024/02/20 14:40:51;;;;;;;;;;;;;;;;;;2188613;59;2632;-24
2024/02/20 14:43:21;;;;;;;;;;;;;;;;;;2192651;59;1898;-23
2024/02/20 14:45:53;;;;;;;;;;;;;;;;;;2189652;59;2776;-24
2024/02/20 14:48:23;;;;;;;;;;;;;;;;;;2189205;59;2757;-23
2024/02/20 14:50:55;;;;;;;;;;;;;;;;;;2189563;59;1962;-23
2024/02/20 14:53:25;;;;;;;;;;;;;;;;;;2192612;58;2031;-23
2024/02/20 14:55:55;;;;;;;;;;;;;;;;;;2188019;59;2578;-23
2024/02/20 14:58:25;;;;;;;;;;;;;;;;;;2189945;59;2936;-23
2024/02/20 15:00:57;;;;;;;;;;;;;;;;;;2190220;59;2189;-23
2024/02/20 15:03:27;;;;;;;;;;;;;;;;;;2189304;59;2220;-23
2024/02/20 15:05:57;;;;;;;;;;;;;;;;;;2189192;59;2986;-23
2024/02/20 15:08:27;;;;;;;;;;;;;;;;;;2191046;67;2004;-23
2024/02/20 15:10:58;;;;;;;;;;;;;;;;;;2193022;66;1920;-24
2024/02/20 15:13:30;;;;;;;;;;;;;;;;;;2192994;59;1942;-23
2024/02/20 15:16:08;;;;;;;;;;;;;;;;;;2190208;66;2467;-23
2024/02/20 15:18:39;;;;;;;;;;;;;;;;;;2191419;66;1949;-23
2024/02/20 15:21:09;;;;;;;;;;;;;;;;;;2190670;66;1867;-22
2024/02/20 15:23:40;;;;;;;;;;;;;;;;;;2191631;66;2181;-23
2024/02/20 15:26:11;;;;;;;;;;;;;;;;;;2191598;66;2212;-23
2024/02/20 15:28:42;;;;;;;;;;;;;;;;;;2189503;59;2436;-23
2024/02/20 15:31:20;;;;;;;;;;;;;;;;;;2192355;59;3488;-23
2024/02/20 15:33:51;;;;;;;;;;;;;;;;;;2190254;59;2881;-23
2024/02/20 15:36:21;;;;;;;;;;;;;;;;;;2188856;59;2286;-23
2024/02/20 15:38:51;;;;;;;;;;;;;;;;;;2188927;59;2713;-23
2024/02/20 15:41:22;;;;;;;;;;;;;;;;;;2191403;59;2128;-23
2024/02/20 15:43:53;;;;;;;;;;;;;;;;;;2188079;66;1842;-23
2024/02/20 15:46:25;;;;;;;;;;;;;;;;;;2189524;59;1850;-23
2024/02/20 15:48:57;;;;;;;;;;;;;;;;;;2193300;66;2931;-23
2024/02/20 15:51:32;;;;;;;;;;;;;;;;;;2192457;59;1847;-23
2024/02/20 15:54:02;;;;;;;;;;;;;;;;;;2190118;59;2464;-23
2024/02/20 15:56:36;;;;;;;;;;;;;;;;;;2192818;66;1818;-23
2024/02/20 15:59:06;;;;;;;;;;;;;;;;;;2189492;59;1940;-23
2024/02/20 16:01:36;;;;;;;;;;;;;;;;;;2194261;59;2375;-23
2024/02/20 16:04:07;;;;;;;;;;;;;;;;;;2193238;59;2630;-23
2024/02/20 16:06:39;;;;;;;;;;;;;;;;;;2193196;59;2017;-23
2024/02/20 16:09:09;;;;;;;;;;;;;;;;;;2188281;59;3046;-23
2024/02/20 16:11:40;;;;;;;;;;;;;;;;;;2193288;66;1607;-23
2024/02/20 16:14:11;;;;;;;;;;;;;;;;;;2193793;58;2316;-23
2024/02/20 16:16:41;;;;;;;;;;;;;;;;;;2193788;66;1291;-23
2024/02/20 16:19:11;;;;;;;;;;;;;;;;;;2189458;67;1775;-23
2024/02/20 16:21:41;;;;;;;;;;;;;;;;;;2196638;66;1213;-23
2024/02/20 16:24:12;;;;;;;;;;;;;;;;;;2188296;59;1469;-23
2024/02/20 16:26:46;;;;;;;;;;;;;;;;;;2190994;67;1538;-23
2024/02/20 16:29:17;;;;;;;;;;;;;;;;;;2194099;59;2267;-23
2024/02/20 16:31:49;;;;;;;;;;;;;;;;;;2193635;59;2094;-23
2024/02/20 16:34:21;;;;;;;;;;;;;;;;;;2197072;59;2185;-23
2024/02/20 16:36:58;;;;;;;;;;;;;;;;;;2189445;59;1867;-23
2024/02/20 16:39:29;;;;;;;;;;;;;;;;;;2194815;59;1779;-23
2024/02/20 16:41:59;;;;;;;;;;;;;;;;;;2193901;59;1388;-23
2024/02/20 16:44:30;;;;;;;;;;;;;;;;;;2189901;59;1590;-23
2024/02/20 16:47:00;;;;;;;;;;;;;;;;;;2190668;59;1597;-23
2024/02/20 16:49:30;;;;;;;;;;;;;;;;;;2189927;67;1945;-23
2024/02/20 16:52:01;;;;;;;;;;;;;;;;;;2194442;59;1490;-23
2024/02/20 16:54:32;;;;;;;;;;;;;;;;;;2194675;59;1721;-23
2024/02/20 16:57:04;;;;;;;;;;;;;;;;;;2193347;59;1715;-23
2024/02/20 16:59:35;;;;;;;;;;;;;;;;;;2194476;66;1713;-23
2024/02/20 17:02:06;;;;;;;;;;;;;;;;;;2191873;59;2536;-23
2024/02/20 17:04:38;;;;;;;;;;;;;;;;;;2193938;66;1741;-23
2024/02/20 17:07:09;;;;;;;;;;;;;;;;;;2186641;59;2458;-23
2024/02/20 17:09:39;;;;;;;;;;;;;;;;;;2190510;60;2244;-23
2024/02/20 17:12:13;;;;;;;;;;;;;;;;;;2189941;59;1983;-23
2024/02/20 17:14:44;;;;;;;;;;;;;;;;;;2190472;59;2681;-23
2024/02/20 17:17:14;;;;;;;;;;;;;;;;;;2192247;66;1936;-23
2024/02/20 17:19:45;;;;;;;;;;;;;;;;;;2189456;67;1730;-22
2024/02/20 17:22:15;;;;;;;;;;;;;;;;;;2188519;59;2490;-22
2024/02/20 17:24:45;;;;;;;;;;;;;;;;;;2193385;66;1822;-22
2024/02/20 17:27:16;;;;;;;;;;;;;;;;;;2189811;67;1955;-22
2024/02/20 17:29:46;;;;;;;;;;;;;;;;;;2190482;67;1945;-22
2024/02/20 17:32:16;;;;;;;;;;;;;;;;;;2191842;66;1916;-22
2024/02/20 17:34:46;;;;;;;;;;;;;;;;;;2195344;66;1912;-22